Time;durP1;ratioP1;P1;durP2;ratioP2;P2;SDS_P1;SDS_P2;PMS_P1;PMS_P2;Temp;Humidity;BMP_temperature;BMP_pressure;BME280_temperature;BME280_humidity;BME280_pressure;Samples;Min_cycle;Max_cycle;Signal;HPM_P1;HPM_P2
2022/05/05 00:00:51;;;;;;;11.45;8.18;;;;;;;8.20;100.00;98759.47;4225938;27;20230;-72
2022/05/05 00:02:51;;;;;;;10.10;7.88;;;;;;;8.23;100.00;98764.28;4222296;28;20040;-72
2022/05/05 00:04:52;;;;;;;11.43;7.97;;;;;;;8.28;100.00;98764.00;4222249;27;20586;-72
2022/05/05 00:06:52;;;;;;;11.73;7.57;;;;;;;8.37;100.00;98766.63;4224287;27;20047;-72
2022/05/05 00:08:56;;;;;;;8.73;6.70;;;;;;;8.47;100.00;98766.06;4221962;28;20072;-72
2022/05/05 00:15:34;;;;;;;7.43;6.15;;;;;;;8.40;100.00;98774.97;4222747;27;20172;-72
2022/05/05 00:17:35;;;;;;;8.50;6.57;;;;;;;8.28;100.00;98766.78;4233043;27;20047;-72
2022/05/05 00:19:38;;;;;;;9.38;6.88;;;;;;;8.23;100.00;98772.53;4223182;27;20431;-72
2022/05/05 00:21:38;;;;;;;9.90;7.43;;;;;;;8.21;100.00;98774.84;4222709;28;20100;-72
2022/05/05 00:23:39;;;;;;;9.73;7.15;;;;;;;8.20;100.00;98778.78;4222247;27;20047;-72
2022/05/05 00:25:39;;;;;;;9.60;7.32;;;;;;;8.14;100.00;98774.66;4222013;28;20074;-71
2022/05/05 00:27:39;;;;;;;9.73;6.70;;;;;;;8.10;100.00;98780.06;4220455;27;20508;-72
2022/05/05 00:29:40;;;;;;;10.45;6.88;;;;;;;8.10;100.00;98782.84;4221447;28;20850;-72
2022/05/05 00:31:40;;;;;;;8.63;7.07;;;;;;;8.06;100.00;98781.94;4222035;28;20107;-72
2022/05/05 00:33:41;;;;;;;10.25;7.18;;;;;;;8.05;100.00;98787.81;4222633;27;20506;-72
2022/05/05 00:35:42;;;;;;;9.35;7.00;;;;;;;7.98;100.00;98779.38;4222630;28;20498;-72
2022/05/05 00:37:42;;;;;;;10.18;7.38;;;;;;;7.91;100.00;98781.94;4221719;28;20108;-72
2022/05/05 00:39:42;;;;;;;10.52;7.38;;;;;;;7.86;100.00;98778.28;4221311;28;20483;-72
2022/05/05 00:41:47;;;;;;;8.35;6.93;;;;;;;7.84;100.00;98777.81;4226813;27;20146;-71
2022/05/05 00:43:48;;;;;;;9.27;6.93;;;;;;;7.80;100.00;98779.69;4225155;27;20435;-72
2022/05/05 00:45:48;;;;;;;12.48;7.28;;;;;;;7.75;100.00;98773.63;4224689;27;20040;-72
2022/05/05 00:47:49;;;;;;;10.15;7.63;;;;;;;7.71;100.00;98772.75;4230580;27;20051;-72
2022/05/05 00:49:49;;;;;;;9.93;7.25;;;;;;;7.67;100.00;98763.56;4221602;28;20078;-71
2022/05/05 00:51:49;;;;;;;8.70;6.90;;;;;;;7.66;100.00;98768.28;4228275;27;20043;-72
2022/05/05 00:53:50;;;;;;;10.52;6.97;;;;;;;7.65;100.00;98763.94;4221872;28;20427;-72
2022/05/05 00:55:56;;;;;;;14.13;7.95;;;;;;;7.64;100.00;98769.78;4225693;27;20078;-72
2022/05/05 00:57:56;;;;;;;8.88;6.80;;;;;;;7.59;100.00;98763.38;4226211;27;20047;-72
2022/05/05 00:59:59;;;;;;;8.65;6.60;;;;;;;7.57;100.00;98765.69;4230527;27;20084;-71
2022/05/05 01:02:02;;;;;;;10.40;6.97;;;;;;;7.53;100.00;98767.53;4220438;28;20048;-71
2022/05/05 01:04:05;;;;;;;12.52;6.95;;;;;;;7.49;100.00;98763.88;4221321;27;20031;-72
2022/05/05 01:06:06;;;;;;;14.85;8.18;;;;;;;7.42;100.00;98773.88;4221021;27;20455;-71
2022/05/05 01:08:07;;;;;;;11.23;7.60;;;;;;;7.38;100.00;98775.75;4231134;27;20050;-71
2022/05/05 01:10:08;;;;;;;8.93;7.30;;;;;;;7.33;100.00;98772.06;4222368;27;20016;-72
2022/05/05 01:12:09;;;;;;;11.73;7.38;;;;;;;7.32;100.00;98775.19;4221320;28;20035;-71
2022/05/05 01:14:09;;;;;;;11.38;7.25;;;;;;;7.31;100.00;98774.38;4221172;28;20024;-71
2022/05/05 01:16:11;;;;;;;8.57;6.70;;;;;;;7.32;100.00;98780.69;4231529;27;20447;-72
2022/05/05 01:18:11;;;;;;;9.00;6.88;;;;;;;7.32;100.00;98781.50;4221095;27;20031;-72
2022/05/05 01:20:16;;;;;;;8.57;5.90;;;;;;;7.29;100.00;98770.38;4220534;27;20429;-72
2022/05/05 01:22:17;;;;;;;10.40;6.57;;;;;;;7.25;100.00;98778.53;4222340;27;20072;-72
2022/05/05 01:28:10;;;;;;;14.30;7.78;;;;;;;7.24;100.00;98795.41;4233135;27;20039;-71
2022/05/05 01:28:57;;;;;;;6.25;5.05;;;;;;;7.23;100.00;98793.78;4220764;28;20321;-72
2022/05/05 01:30:59;;;;;;;8.23;5.45;;;;;;;7.23;100.00;98788.28;4221275;28;20624;-72
2022/05/05 01:32:59;;;;;;;7.40;6.00;;;;;;;7.22;100.00;98786.69;4220984;28;20196;-71
2022/05/05 01:35:00;;;;;;;10.45;6.22;;;;;;;7.20;100.00;98792.53;4220579;28;20075;-71
2022/05/05 01:37:00;;;;;;;7.70;5.68;;;;;;;7.14;100.00;98796.69;4221722;27;20075;-71
2022/05/05 01:39:01;;;;;;;9.07;6.05;;;;;;;7.11;100.00;98797.34;4219803;27;20390;-71
2022/05/05 01:41:03;;;;;;;7.80;5.90;;;;;;;7.04;100.00;98803.47;4221150;28;20051;-71
2022/05/05 01:43:04;;;;;;;11.00;7.00;;;;;;;7.00;100.00;98812.75;4221124;28;20471;-71
2022/05/05 01:45:05;;;;;;;8.23;6.30;;;;;;;6.93;100.00;98810.56;4219647;28;20053;-71
2022/05/05 01:47:05;;;;;;;9.90;6.13;;;;;;;6.90;100.00;98811.28;4221291;27;20484;-71
2022/05/05 01:49:06;;;;;;;9.30;5.95;;;;;;;6.88;100.00;98821.81;4220743;27;20042;-71
2022/05/05 01:51:06;;;;;;;7.55;5.80;;;;;;;6.84;100.00;98809.09;4221143;28;20047;-72
2022/05/05 01:53:06;;;;;;;7.90;6.30;;;;;;;6.83;100.00;98810.25;4220658;27;20043;-71
2022/05/05 01:55:07;;;;;;;8.32;6.65;;;;;;;6.81;100.00;98818.84;4223394;27;20113;-71
2022/05/05 01:57:07;;;;;;;8.07;6.10;;;;;;;6.85;100.00;98824.44;4227050;27;20031;-71
2022/05/05 01:59:08;;;;;;;6.50;4.97;;;;;;;6.86;100.00;98821.34;4220215;27;20069;-72
2022/05/05 02:01:09;;;;;;;7.15;5.60;;;;;;;6.91;100.00;98825.81;4226741;27;20313;-71
2022/05/05 02:03:12;;;;;;;7.22;5.78;;;;;;;6.94;100.00;98823.19;4221465;27;20471;-71
2022/05/05 02:05:14;;;;;;;6.28;5.15;;;;;;;6.96;100.00;98825.59;4230951;27;20473;-71
2022/05/05 02:07:14;;;;;;;6.40;5.35;;;;;;;6.98;100.00;98818.59;4222668;27;20039;-71
2022/05/05 02:09:14;;;;;;;6.65;5.53;;;;;;;6.98;100.00;98813.09;4218777;28;20391;-71
2022/05/05 02:11:15;;;;;;;7.05;5.30;;;;;;;6.96;100.00;98803.59;4221092;27;20322;-72
2022/05/05 02:13:15;;;;;;;6.05;5.22;;;;;;;6.95;100.00;98821.22;4220862;28;20047;-71
2022/05/05 02:15:15;;;;;;;8.82;6.22;;;;;;;6.97;100.00;98829.97;4220177;28;20081;-71
2022/05/05 02:17:16;;;;;;;7.55;5.65;;;;;;;6.97;100.00;98824.47;4220314;28;20049;-71
2022/05/05 02:19:16;;;;;;;9.55;5.55;;;;;;;6.99;100.00;98827.66;4220063;28;20070;-71
2022/05/05 02:21:17;;;;;;;7.00;5.63;;;;;;;7.07;100.00;98825.94;4220262;27;20573;-71
2022/05/05 02:23:17;;;;;;;7.28;5.45;;;;;;;7.07;100.00;98818.47;4220440;28;20074;-71
2022/05/05 02:25:17;;;;;;;8.90;6.43;;;;;;;7.09;100.00;98812.63;4223817;27;20043;-71
2022/05/05 02:27:18;;;;;;;6.22;5.03;;;;;;;7.07;100.00;98809.41;4220315;28;20552;-71
2022/05/05 02:29:18;;;;;;;8.13;6.07;;;;;;;7.00;100.00;98802.53;4219799;28;20348;-71
2022/05/05 02:31:19;;;;;;;9.82;5.55;;;;;;;7.03;100.00;98814.78;4220476;27;20067;-71
2022/05/05 02:33:20;;;;;;;6.82;5.10;;;;;;;7.09;100.00;98802.41;4220557;28;20083;-72
2022/05/05 02:35:20;;;;;;;7.53;5.43;;;;;;;7.18;100.00;98805.03;4220328;28;20108;-71
2022/05/05 02:39:39;;;;;;;7.10;5.57;;;;;;;7.18;100.00;98811.34;4231620;27;20065;-71
2022/05/05 02:41:39;;;;;;;6.40;5.07;;;;;;;7.19;100.00;98820.38;4220192;28;20071;-71
2022/05/05 02:43:40;;;;;;;7.75;5.38;;;;;;;7.13;100.00;98808.84;4226456;27;20358;-71
2022/05/05 02:45:41;;;;;;;5.65;4.97;;;;;;;7.09;100.00;98815.38;4220366;28;20050;-71
2022/05/05 02:47:41;;;;;;;6.53;5.47;;;;;;;7.06;100.00;98819.63;4220139;28;20505;-71
2022/05/05 02:49:41;;;;;;;7.63;5.95;;;;;;;7.03;100.00;98818.38;4219214;28;20754;-71
2022/05/05 02:51:42;;;;;;;8.57;6.53;;;;;;;7.02;100.00;98815.94;4224233;27;20135;-71
2022/05/05 02:56:01;;;;;;;8.70;6.65;;;;;;;6.99;100.00;98816.66;4222846;27;20047;-72
2022/05/05 02:58:01;;;;;;;7.75;5.97;;;;;;;6.96;100.00;98820.09;4219985;28;20035;-72
2022/05/05 03:00:04;;;;;;;7.55;6.30;;;;;;;6.94;100.00;98825.94;4218889;28;20051;-71
2022/05/05 03:02:04;;;;;;;7.80;6.10;;;;;;;6.91;100.00;98821.13;4220720;27;20114;-71
2022/05/05 03:04:05;;;;;;;8.23;6.55;;;;;;;6.91;100.00;98820.31;4224820;28;20070;-71
2022/05/05 03:06:05;;;;;;;7.13;5.57;;;;;;;6.89;100.00;98820.69;4220718;28;20076;-71
2022/05/05 03:08:06;;;;;;;7.10;5.63;;;;;;;6.93;100.00;98823.53;4219654;28;20042;-72
2022/05/05 03:10:07;;;;;;;8.05;6.05;;;;;;;6.91;100.00;98826.63;4223994;27;20023;-71
2022/05/05 03:12:08;;;;;;;9.57;6.88;;;;;;;6.91;100.00;98823.06;4221538;27;20406;-72
2022/05/05 03:14:09;;;;;;;7.72;6.07;;;;;;;6.92;100.00;98830.97;4223722;27;20650;-71
2022/05/05 03:16:09;;;;;;;10.45;6.68;;;;;;;6.92;100.00;98833.72;4219908;28;20055;-71
2022/05/05 03:18:10;;;;;;;7.93;6.15;;;;;;;6.95;100.00;98830.31;4219822;28;20042;-72
2022/05/05 03:20:11;;;;;;;8.65;6.18;;;;;;;6.95;100.00;98830.31;4218864;28;20067;-71
2022/05/05 03:22:11;;;;;;;7.55;5.88;;;;;;;6.99;100.00;98833.16;4226348;28;20032;-71
2022/05/05 03:24:11;;;;;;;11.63;6.13;;;;;;;6.98;100.00;98829.59;4219576;28;20387;-72
2022/05/05 03:26:12;;;;;;;8.88;6.65;;;;;;;6.96;100.00;98829.16;4220533;28;20042;-71
2022/05/05 03:28:13;;;;;;;8.50;6.43;;;;;;;6.96;100.00;98825.59;4222966;28;20558;-72
2022/05/05 03:30:13;;;;;;;9.65;6.82;;;;;;;6.97;100.00;98827.22;4223471;27;20046;-71
2022/05/05 03:32:15;;;;;;;8.75;6.60;;;;;;;6.95;100.00;98823.97;4228845;27;20039;-71
2022/05/05 03:34:15;;;;;;;8.88;6.55;;;;;;;6.95;100.00;98823.97;4223283;27;20036;-71
2022/05/05 03:36:16;;;;;;;9.07;6.85;;;;;;;6.96;100.00;98820.09;4222970;27;20286;-71
2022/05/05 03:38:16;;;;;;;11.48;7.43;;;;;;;6.98;100.00;98821.34;4222642;28;20115;-71
2022/05/05 03:40:17;;;;;;;11.77;7.18;;;;;;;7.00;100.00;98821.00;4222809;27;20127;-71
2022/05/05 03:42:18;;;;;;;9.95;7.85;;;;;;;6.98;100.00;98818.59;4227853;27;20054;-72
2022/05/05 03:44:18;;;;;;;11.35;8.00;;;;;;;6.98;100.00;98823.31;4222974;28;20062;-72
2022/05/05 03:46:19;;;;;;;9.68;7.07;;;;;;;6.99;100.00;98824.91;4221335;28;20115;-71
2022/05/05 03:48:19;;;;;;;8.98;6.28;;;;;;;7.02;100.00;98832.47;4222154;28;20721;-71
2022/05/05 03:50:19;;;;;;;10.98;6.65;;;;;;;7.12;100.00;98826.50;4233858;27;20027;-71
2022/05/05 03:52:20;;;;;;;8.75;6.53;;;;;;;7.20;100.00;98825.56;4228959;27;20050;-71
2022/05/05 03:54:20;;;;;;;7.93;6.10;;;;;;;7.25;100.00;98822.56;4223047;28;20376;-72
2022/05/05 03:56:20;;;;;;;8.63;5.93;;;;;;;7.31;100.00;98825.88;4226787;27;20534;-71
2022/05/05 03:58:20;;;;;;;7.85;5.93;;;;;;;7.33;100.00;98832.63;4228108;27;20051;-71
2022/05/05 04:00:22;;;;;;;8.48;5.95;;;;;;;7.33;100.00;98840.09;4228323;27;20108;-71
2022/05/05 04:02:23;;;;;;;9.27;5.55;;;;;;;7.30;100.00;98840.78;4216355;27;20047;-71
2022/05/05 04:04:25;;;;;;;8.95;5.95;;;;;;;7.31;100.00;98843.19;4232202;27;20375;-71
2022/05/05 04:06:25;;;;;;;10.27;5.60;;;;;;;7.32;100.00;98842.03;4222462;27;20043;-71
2022/05/05 04:08:29;;;;;;;6.82;5.25;;;;;;;7.42;100.00;98848.22;4222084;28;20119;-71
2022/05/05 04:10:30;;;;;;;6.90;5.28;;;;;;;7.47;100.00;98853.50;4224237;27;20075;-71
2022/05/05 04:12:30;;;;;;;8.65;5.90;;;;;;;7.47;100.00;98856.25;4222565;27;20062;-72
2022/05/05 04:14:33;;;;;;;7.82;5.47;;;;;;;7.45;100.00;98850.28;4222639;28;20040;-71
2022/05/05 04:16:34;;;;;;;8.40;5.47;;;;;;;7.39;100.00;98855.22;4222082;28;20139;-71
2022/05/05 04:18:35;;;;;;;6.35;5.32;;;;;;;7.39;100.00;98855.22;4221266;27;20148;-71
2022/05/05 04:20:35;;;;;;;8.40;5.95;;;;;;;7.36;100.00;98861.41;4228584;27;20143;-71
2022/05/05 04:22:35;;;;;;;10.02;6.05;;;;;;;7.38;100.00;98852.81;4226259;27;20047;-71
2022/05/05 04:24:36;;;;;;;11.15;6.07;;;;;;;7.41;100.00;98857.63;4222247;27;20150;-71
2022/05/05 04:26:36;;;;;;;9.82;6.05;;;;;;;7.46;100.00;98860.16;4220849;27;20501;-71
2022/05/05 04:28:37;;;;;;;7.82;6.00;;;;;;;7.52;100.00;98867.78;4224367;27;20048;-72
2022/05/05 04:30:38;;;;;;;9.02;6.10;;;;;;;7.55;100.00;98869.88;4223829;27;20050;-71
2022/05/05 04:32:38;;;;;;;9.13;6.18;;;;;;;7.64;100.00;98866.97;4224187;27;20413;-71
2022/05/05 04:34:39;;;;;;;10.45;6.72;;;;;;;7.70;100.00;98870.28;4221457;28;20122;-71
2022/05/05 04:36:40;;;;;;;13.90;7.13;;;;;;;7.70;100.00;98864.78;4221916;27;20044;-71
2022/05/05 04:38:40;;;;;;;10.90;6.97;;;;;;;7.71;100.00;98872.69;4226664;27;20128;-71
2022/05/05 04:40:41;;;;;;;14.45;7.10;;;;;;;7.76;100.00;98875.19;4224735;27;20134;-71
2022/05/05 04:42:41;;;;;;;14.15;7.93;;;;;;;7.76;100.00;98861.41;4223643;27;20054;-71
2022/05/05 04:44:42;;;;;;;11.30;7.68;;;;;;;7.77;100.00;98876.78;4228030;27;20059;-71
2022/05/05 04:46:42;;;;;;;12.82;8.43;;;;;;;7.81;100.00;98863.94;4222990;27;20036;-72
2022/05/05 04:48:42;;;;;;;12.43;7.97;;;;;;;7.83;100.00;98878.16;4220808;28;20082;-71
2022/05/05 04:50:42;;;;;;;11.65;8.10;;;;;;;7.76;100.00;98875.19;4223513;27;20065;-71
2022/05/05 04:52:43;;;;;;;13.57;7.93;;;;;;;7.77;100.00;98879.53;4224618;27;20557;-71
2022/05/05 04:54:43;;;;;;;12.45;7.50;;;;;;;7.79;100.00;98884.72;4164576;27;20096;-71
2022/05/05 04:56:44;;;;;;;15.45;8.32;;;;;;;7.82;100.00;98887.56;4216246;27;20044;-71
2022/05/05 04:58:44;;;;;;;11.48;7.45;;;;;;;7.87;100.00;98883.78;4222761;27;20051;-71
2022/05/05 05:00:45;;;;;;;15.40;8.75;;;;;;;7.87;100.00;98887.34;4222908;27;20413;-71
2022/05/05 05:02:45;;;;;;;15.25;8.27;;;;;;;7.90;100.00;98891.31;4221746;28;20483;-71
2022/05/05 05:04:46;;;;;;;15.90;9.77;;;;;;;7.95;100.00;98891.09;4223027;27;20055;-71
2022/05/05 05:06:46;;;;;;;14.38;9.23;;;;;;;7.98;100.00;98886.81;4222675;27;20134;-71
2022/05/05 05:08:47;;;;;;;15.20;9.65;;;;;;;7.97;100.00;98890.75;4220923;28;20054;-71
2022/05/05 05:10:47;;;;;;;12.18;8.45;;;;;;;8.00;100.00;98890.81;4223179;27;20043;-71
2022/05/05 05:12:47;;;;;;;16.23;9.73;;;;;;;8.02;100.00;98891.25;4223419;27;20443;-71
2022/05/05 05:14:48;;;;;;;15.00;10.50;;;;;;;8.03;100.00;98895.66;4223875;27;20163;-71
2022/05/05 05:16:48;;;;;;;18.63;10.65;;;;;;;8.03;100.00;98901.16;4222084;27;20043;-71
2022/05/05 05:18:53;;;;;;;16.25;9.98;;;;;;;8.03;100.00;98906.69;4219909;27;20043;-71
2022/05/05 05:20:53;;;;;;;19.00;10.45;;;;;;;8.08;100.00;98908.38;4226690;27;20051;-71
2022/05/05 05:22:54;;;;;;;13.05;9.45;;;;;;;8.08;100.00;98911.13;4220674;28;20039;-71
2022/05/05 05:24:54;;;;;;;17.77;10.38;;;;;;;8.13;100.00;98917.19;4220310;27;20075;-71
2022/05/05 05:26:54;;;;;;;15.10;9.68;;;;;;;8.16;100.00;98923.94;4230134;27;20045;-71
2022/05/05 05:28:54;;;;;;;16.20;10.50;;;;;;;8.21;100.00;98926.47;4222890;27;20122;-71
2022/05/05 05:30:55;;;;;;;15.68;9.82;;;;;;;8.22;100.00;98927.25;4223217;27;20052;-71
2022/05/05 05:32:55;;;;;;;17.73;12.20;;;;;;;8.22;100.00;98928.06;4224480;27;20476;-71
2022/05/05 05:34:56;;;;;;;15.68;10.73;;;;;;;8.26;100.00;98934.47;4227757;27;20383;-72
2022/05/05 05:36:56;;;;;;;16.45;10.80;;;;;;;8.36;100.00;98930.44;4221587;27;20066;-71
2022/05/05 05:38:57;;;;;;;18.70;10.48;;;;;;;8.44;100.00;98940.53;4222991;27;20038;-71
2022/05/05 05:40:57;;;;;;;17.33;10.95;;;;;;;8.46;100.00;98926.38;4225930;27;20106;-71
2022/05/05 05:42:57;;;;;;;19.98;12.68;;;;;;;8.44;100.00;98930.28;4220703;28;20126;-71
2022/05/05 05:44:58;;;;;;;22.20;12.82;;;;;;;8.43;100.00;98925.91;4226437;27;20506;-71
2022/05/05 05:46:58;;;;;;;19.10;12.25;;;;;;;8.47;100.00;98936.25;4220548;28;20517;-71
2022/05/05 05:48:58;;;;;;;21.33;13.40;;;;;;;8.54;100.00;98933.69;4219739;28;20263;-71
2022/05/05 05:50:59;;;;;;;20.20;12.13;;;;;;;8.57;100.00;98938.47;4221539;28;20388;-71
2022/05/05 05:53:00;;;;;;;22.02;13.00;;;;;;;8.63;100.00;98934.31;4227972;27;20055;-71
2022/05/05 05:55:00;;;;;;;21.63;12.95;;;;;;;8.64;100.00;98938.69;4220959;28;20047;-71
2022/05/05 05:57:00;;;;;;;21.48;13.07;;;;;;;8.74;100.00;98935.38;4221125;27;20280;-71
2022/05/05 05:59:01;;;;;;;22.77;14.23;;;;;;;8.68;100.00;98932.09;4226853;27;20043;-71
2022/05/05 06:01:01;;;;;;;22.90;13.00;;;;;;;8.75;100.00;98936.19;4223711;27;20043;-71
2022/05/05 06:05:21;;;;;;;20.48;13.68;;;;;;;8.81;100.00;98935.56;4221979;27;20667;-71
2022/05/05 06:07:21;;;;;;;20.42;12.75;;;;;;;8.81;100.00;98951.34;4222347;27;20107;-71
2022/05/05 06:09:22;;;;;;;25.05;14.10;;;;;;;8.79;100.00;98948.13;4223341;27;20374;-71
2022/05/05 06:11:23;;;;;;;22.65;13.23;;;;;;;8.80;100.00;98949.72;4224834;27;20052;-71
2022/05/05 06:13:23;;;;;;;22.52;14.30;;;;;;;8.88;100.00;98946.00;4227470;27;20039;-71
2022/05/05 06:15:24;;;;;;;23.73;13.38;;;;;;;8.87;100.00;98958.19;4221133;27;20704;-71
2022/05/05 06:17:24;;;;;;;24.65;14.90;;;;;;;8.90;100.00;98961.03;4220702;28;20584;-71
2022/05/05 06:19:25;;;;;;;21.42;13.52;;;;;;;8.97;100.00;98963.19;4219695;28;20046;-71
2022/05/05 06:21:25;;;;;;;23.58;15.13;;;;;;;9.06;100.00;98960.25;4220774;28;20581;-71
2022/05/05 06:23:25;;;;;;;20.48;13.45;;;;;;;9.10;100.00;98961.13;4226357;27;20054;-71
2022/05/05 06:25:26;;;;;;;20.77;13.75;;;;;;;9.18;100.00;98965.66;4220606;27;20048;-71
2022/05/05 06:27:26;;;;;;;25.40;15.02;;;;;;;9.25;100.00;98965.84;4220361;28;20149;-71
2022/05/05 06:29:27;;;;;;;22.10;13.57;;;;;;;9.33;100.00;98973.13;4219527;28;20039;-71
2022/05/05 06:31:28;;;;;;;21.90;13.95;;;;;;;9.34;100.00;98973.94;4219838;28;20057;-71
2022/05/05 06:33:28;;;;;;;19.25;12.10;;;;;;;9.35;100.00;98970.00;4224627;27;20461;-71
2022/05/05 06:35:28;;;;;;;18.65;12.45;;;;;;;9.39;100.00;98977.25;4223740;27;20379;-71
2022/05/05 06:37:29;;;;;;;19.23;12.23;;;;;;;9.41;100.00;98976.88;4224364;27;20051;-71
2022/05/05 06:39:29;;;;;;;21.60;13.48;;;;;;;9.44;100.00;98979.75;4219511;27;20055;-71
2022/05/05 06:41:29;;;;;;;23.30;13.55;;;;;;;9.46;100.00;98985.69;4219621;28;20074;-71
2022/05/05 06:43:30;;;;;;;23.85;14.40;;;;;;;9.50;100.00;98985.78;4226565;27;20479;-71
2022/05/05 06:45:30;;;;;;;19.80;13.23;;;;;;;9.53;100.00;98996.13;4219352;28;20096;-71
2022/05/05 06:47:30;;;;;;;17.58;11.88;;;;;;;9.55;100.00;98991.84;4219710;28;20044;-71
2022/05/05 06:49:31;;;;;;;22.85;14.82;;;;;;;9.66;100.00;98997.59;4219324;28;20433;-71
2022/05/05 06:51:31;;;;;;;22.63;13.38;;;;;;;9.70;100.00;98997.69;4224844;27;20047;-71
2022/05/05 06:53:31;;;;;;;22.90;13.43;;;;;;;9.73;100.00;98996.97;4220993;27;20047;-71
2022/05/05 06:55:32;;;;;;;16.70;12.07;;;;;;;9.75;100.00;98992.69;4219845;27;20062;-71
2022/05/05 06:57:32;;;;;;;20.13;12.82;;;;;;;9.79;100.00;99006.59;4223984;27;20043;-71
2022/05/05 06:59:32;;;;;;;20.08;12.88;;;;;;;9.88;100.00;99007.19;4218835;28;20039;-71
2022/05/05 07:05:23;;;;;;;20.02;12.23;;;;;;;10.01;100.00;98999.56;4219878;28;20042;-71
2022/05/05 07:06:12;;;;;;;21.30;13.48;;;;;;;10.12;100.00;99004.19;4220052;28;20126;-72
2022/05/05 07:08:12;;;;;;;20.10;14.10;;;;;;;10.22;100.00;99000.06;4221377;28;20432;-71
2022/05/05 07:12:32;;;;;;;24.95;14.25;;;;;;;10.40;100.00;99015.06;4219755;28;20039;-71
2022/05/05 07:14:33;;;;;;;26.25;15.27;;;;;;;10.49;100.00;99019.56;4219740;27;20107;-72
2022/05/05 07:16:34;;;;;;;20.80;14.20;;;;;;;10.56;100.00;99012.22;4219148;28;20051;-72
2022/05/05 07:18:34;;;;;;;24.27;15.55;;;;;;;10.61;100.00;99009.16;4221271;28;20111;-72
2022/05/05 07:20:35;;;;;;;22.83;14.07;;;;;;;10.68;100.00;99012.06;4223258;27;20126;-71
2022/05/05 07:22:35;;;;;;;24.88;15.50;;;;;;;10.72;100.00;99009.38;4220152;28;20092;-72
2022/05/05 07:24:36;;;;;;;23.90;14.68;;;;;;;10.82;100.00;99007.97;4228356;27;20042;-72
2022/05/05 07:26:36;;;;;;;21.10;14.10;;;;;;;10.83;100.00;99012.31;4221713;27;20399;-71
2022/05/05 07:28:37;;;;;;;23.17;15.43;;;;;;;10.78;100.00;99007.91;4218708;28;20530;-71
2022/05/05 07:30:37;;;;;;;22.17;13.88;;;;;;;10.80;100.00;99015.84;4219685;27;20040;-71
2022/05/05 07:32:37;;;;;;;21.73;14.43;;;;;;;10.82;100.00;99019.03;4219885;28;20043;-71
2022/05/05 07:34:39;;;;;;;21.98;14.30;;;;;;;10.79;100.00;99023.34;4219756;28;20055;-71
2022/05/05 07:36:39;;;;;;;20.98;14.07;;;;;;;10.62;100.00;99015.50;4220015;28;20072;-72
2022/05/05 07:38:40;;;;;;;26.08;14.82;;;;;;;10.58;100.00;99032.00;4218943;28;20527;-71
2022/05/05 07:40:40;;;;;;;21.00;13.63;;;;;;;10.63;100.00;99028.97;4225773;28;20047;-71
2022/05/05 07:42:42;;;;;;;30.73;16.55;;;;;;;10.66;100.00;99025.47;4224068;27;20205;-71
2022/05/05 07:44:42;;;;;;;22.77;14.23;;;;;;;10.71;100.00;99024.38;4225639;27;20141;-72
2022/05/05 07:46:42;;;;;;;22.60;14.30;;;;;;;10.77;100.00;99024.88;4225055;27;20485;-71
2022/05/05 07:48:43;;;;;;;19.63;13.93;;;;;;;10.83;100.00;99023.41;4223202;27;20449;-71
2022/05/05 07:50:44;;;;;;;24.55;15.13;;;;;;;10.91;100.00;99031.47;4218872;28;20043;-71
2022/05/05 07:52:44;;;;;;;21.92;14.88;;;;;;;11.03;100.00;99026.97;4219597;28;20082;-72
2022/05/05 07:54:45;;;;;;;20.35;13.63;;;;;;;11.17;100.00;99030.78;4219024;28;20054;-71
2022/05/05 07:56:46;;;;;;;19.88;14.23;;;;;;;11.31;100.00;99038.53;4219234;28;20471;-72
2022/05/05 07:58:46;;;;;;;22.38;14.35;;;;;;;11.40;100.00;99030.75;4221834;28;20043;-72
2022/05/05 08:00:46;;;;;;;22.67;13.35;;;;;;;11.43;100.00;99027.28;4219570;28;20036;-71
2022/05/05 08:02:47;;;;;;;20.45;14.02;;;;;;;11.51;100.00;99023.44;4219801;28;21315;-71
2022/05/05 08:04:47;;;;;;;20.98;14.30;;;;;;;11.58;100.00;99028.28;4222839;28;20674;-72
2022/05/05 08:06:48;;;;;;;20.63;14.43;;;;;;;11.62;100.00;99033.91;4223805;28;20510;-71
2022/05/05 08:08:48;;;;;;;20.30;13.68;;;;;;;11.71;100.00;99018.59;4218508;28;20035;-72
2022/05/05 08:10:53;;;;;;;21.83;14.15;;;;;;;11.75;99.18;99021.44;4220050;27;20157;-71
2022/05/05 08:12:53;;;;;;;22.95;14.98;;;;;;;11.81;100.00;99028.28;4222279;28;20043;-72
2022/05/05 08:14:53;;;;;;;23.25;14.98;;;;;;;11.86;100.00;99030.75;4229203;27;20039;-71
2022/05/05 08:16:55;;;;;;;20.70;14.68;;;;;;;11.93;100.00;99030.06;4222613;28;20246;-72
2022/05/05 08:18:55;;;;;;;19.45;14.82;;;;;;;12.01;100.00;99034.53;4221580;28;20051;-72
2022/05/05 08:20:56;;;;;;;21.52;15.10;;;;;;;12.08;100.00;99034.63;4222346;28;20047;-72
2022/05/05 08:22:56;;;;;;;20.15;14.30;;;;;;;12.15;99.35;99028.38;4222049;28;20047;-72
2022/05/05 08:29:36;;;;;;;20.90;14.63;;;;;;;12.29;97.55;99032.16;4224055;27;20054;-72
2022/05/05 08:31:36;;;;;;;21.00;14.15;;;;;;;12.32;98.00;99047.25;4223344;27;20044;-72
2022/05/05 08:33:38;;;;;;;22.38;14.07;;;;;;;12.29;96.80;99045.22;4225325;27;20047;-72
2022/05/05 08:35:41;;;;;;;19.20;13.10;;;;;;;12.30;96.41;99050.41;4222824;27;20480;-72
2022/05/05 08:37:41;;;;;;;;;;;;;;;12.29;96.18;99062.69;4232866;27;20099;-71
2022/05/05 08:39:42;;;;;;;20.70;14.43;;;;;;;12.22;97.38;99057.03;4223881;27;19984;-72
2022/05/05 08:41:43;;;;;;;20.15;14.48;;;;;;;12.26;98.18;99059.88;4225393;27;20277;-71
2022/05/05 08:43:43;;;;;;;20.27;14.75;;;;;;;12.14;96.84;99051.75;4221937;28;20044;-72
2022/05/05 08:45:47;;;;;;;19.85;14.57;;;;;;;12.11;98.04;99060.81;4222056;28;20368;-72
2022/05/05 08:47:48;;;;;;;22.13;13.95;;;;;;;12.24;97.38;99059.41;4221821;28;20040;-72
2022/05/05 08:49:48;;;;;;;21.55;14.80;;;;;;;12.23;98.26;99061.38;4221222;28;20371;-72
2022/05/05 08:51:52;;;;;;;19.38;14.10;;;;;;;12.31;99.27;99051.19;4221307;27;20087;-72
2022/05/05 08:53:57;;;;;;;18.23;13.50;;;;;;;12.33;97.11;99048.88;4223918;27;20043;-72
2022/05/05 08:55:57;;;;;;;24.50;15.70;;;;;;;12.46;99.24;99061.31;4223184;27;20051;-72
2022/05/05 08:58:00;;;;;;;21.25;15.00;;;;;;;12.54;98.27;99063.00;4221212;27;20399;-72
2022/05/05 09:00:00;;;;;;;;;;;;;;;12.63;95.96;99066.28;4224739;27;20047;-72
2022/05/05 09:02:00;;;;;;;21.70;14.48;;;;;;;12.71;94.25;99067.19;4220986;27;20471;-72
2022/05/05 09:04:03;;;;;;;20.38;13.90;;;;;;;12.76;95.87;99063.28;4221610;28;20380;-72
2022/05/05 09:06:04;;;;;;;20.27;13.57;;;;;;;12.81;94.28;99066.50;4222283;27;20375;-72
2022/05/05 09:08:05;;;;;;;21.50;14.25;;;;;;;12.92;95.69;99066.66;4227446;27;20050;-72
2022/05/05 09:10:05;;;;;;;17.70;13.15;;;;;;;13.03;95.07;99062.00;4224383;27;20189;-72
2022/05/05 09:12:17;;;;;;;20.13;12.55;;;;;;;13.04;91.79;99066.38;4221784;27;20027;-72
2022/05/05 09:14:19;;;;;;;17.63;13.02;;;;;;;13.12;92.25;99064.47;4227722;27;20462;-72
2022/05/05 09:16:25;;;;;;;20.02;13.68;;;;;;;13.15;94.27;99061.72;4222521;27;20038;-72
2022/05/05 09:18:26;;;;;;;26.60;17.00;;;;;;;13.20;92.87;99068.97;4221109;27;20126;-72
2022/05/05 09:20:36;;;;;;;20.27;14.98;;;;;;;13.25;92.31;99065.06;4223104;27;20039;-72
2022/05/05 09:22:37;;;;;;;20.42;13.98;;;;;;;13.24;90.90;99058.69;4221321;27;20146;-72
2022/05/05 09:24:43;;;;;;;18.90;14.02;;;;;;;13.32;92.04;99060.38;4220301;27;20336;-72
2022/05/05 09:26:44;;;;;;;19.38;13.27;;;;;;;13.43;91.75;99066.03;4221337;28;20044;-72
2022/05/05 09:28:44;;;;;;;19.27;13.98;;;;;;;13.55;90.24;99062.13;4225800;27;20075;-72
2022/05/05 09:30:47;;;;;;;17.35;12.80;;;;;;;13.61;87.70;99060.63;4220353;27;20042;-72
2022/05/05 09:32:47;;;;;;;17.92;13.07;;;;;;;13.65;88.04;99065.03;4220348;27;20055;-72
2022/05/05 09:35:15;;;;;;;18.10;12.95;;;;;;;13.70;85.77;99073.00;4225416;27;20035;-72
2022/05/05 09:37:19;;;;;;;19.02;13.25;;;;;;;13.76;88.38;99082.59;4220670;27;20054;-72
2022/05/05 09:39:19;;;;;;;18.48;12.85;;;;;;;13.78;88.41;99073.88;4220120;28;20764;-72
2022/05/05 09:41:22;;;;;;;18.55;13.80;;;;;;;13.82;86.18;99074.72;4222192;27;20043;-72
2022/05/05 09:43:27;;;;;;;21.40;13.68;;;;;;;13.84;87.75;99089.03;4221703;27;20173;-72
2022/05/05 09:45:32;;;;;;;16.10;12.38;;;;;;;13.89;86.10;99079.50;4221042;27;20814;-72